Time;durP1;ratioP1;P1;durP2;ratioP2;P2;SDS_P1;SDS_P2;PMS_P1;PMS_P2;Temp;Humidity;BMP_temperature;BMP_pressure;BME280_temperature;BME280_humidity;BME280_pressure;Samples;Min_cycle;Max_cycle;Signal;HPM_P1;HPM_P2
2021/12/28 00:01:10;;;;;;;3.63;1.90;;;17.40;55.50;;;;;;5053374;28;20207;-58
2021/12/28 00:03:37;;;;;;;2.13;1.90;;;17.40;55.50;;;;;;5053435;28;20676;-59
2021/12/28 00:06:03;;;;;;;1.63;1.52;;;17.40;55.50;;;;;;5053186;28;20306;-59
2021/12/28 00:08:28;;;;;;;1.80;1.70;;;17.40;55.50;;;;;;5052411;28;20175;-57
2021/12/28 00:10:55;;;;;;;2.03;1.65;;;17.30;55.40;;;;;;5054040;28;20186;-59
2021/12/28 00:13:21;;;;;;;2.10;1.90;;;17.30;55.50;;;;;;5052696;28;20617;-59
2021/12/28 00:18:21;;;;;;;1.70;1.60;;;17.30;55.50;;;;;;5053544;28;20190;-59
2021/12/28 00:20:52;;;;;;;1.60;1.42;;;17.30;55.50;;;;;;5052768;28;20219;-59
2021/12/28 00:23:24;;;;;;;1.95;1.70;;;17.30;55.50;;;;;;5053451;28;20373;-59
2021/12/28 00:25:50;;;;;;;1.60;1.50;;;17.30;55.50;;;;;;5053424;28;20501;-59
2021/12/28 00:28:16;;;;;;;1.73;1.60;;;17.20;55.50;;;;;;5052792;28;20215;-59
2021/12/28 00:30:41;;;;;;;2.28;1.77;;;17.30;55.50;;;;;;5053158;28;20301;-59
2021/12/28 00:33:07;;;;;;;2.35;1.88;;;17.30;55.50;;;;;;5053417;28;20229;-59
2021/12/28 00:35:36;;;;;;;2.40;1.63;;;17.20;55.50;;;;;;5052274;28;20641;-58
2021/12/28 00:38:02;;;;;;;3.35;2.13;;;17.20;55.50;;;;;;5053679;28;20511;-59
2021/12/28 00:40:28;;;;;;;1.75;1.65;;;17.20;55.50;;;;;;5052953;28;20659;-59
2021/12/28 00:42:54;;;;;;;1.70;1.60;;;17.20;55.50;;;;;;5052657;28;20627;-60
2021/12/28 00:45:19;;;;;;;2.15;1.45;;;17.20;55.50;;;;;;5052910;28;20205;-58
2021/12/28 00:47:45;;;;;;;1.80;1.70;;;17.20;55.50;;;;;;5053072;28;20175;-59
2021/12/28 00:50:14;;;;;;;2.50;1.90;;;17.10;55.50;;;;;;5052192;28;20266;-60
2021/12/28 00:52:40;;;;;;;1.98;1.58;;;17.10;55.50;;;;;;5052901;28;20563;-60
2021/12/28 00:55:06;;;;;;;1.85;1.75;;;17.10;55.50;;;;;;5052340;28;20661;-58
2021/12/28 00:57:31;;;;;;;2.97;1.90;;;17.10;55.50;;;;;;5052632;28;20182;-60
2021/12/28 00:59:57;;;;;;;1.73;1.50;;;17.10;55.50;;;;;;5052935;28;20210;-59
2021/12/28 01:02:22;;;;;;;2.20;1.77;;;17.10;55.50;;;;;;5051900;28;20174;-58
2021/12/28 01:04:48;;;;;;;2.70;1.90;;;17.10;55.50;;;;;;5052829;28;20332;-59
2021/12/28 01:07:13;;;;;;;1.98;1.85;;;17.10;55.50;;;;;;5052941;28;20466;-58
2021/12/28 01:09:41;;;;;;;1.83;1.73;;;17.10;55.50;;;;;;5051721;28;20183;-59
2021/12/28 01:12:07;;;;;;;2.28;2.08;;;17.10;55.50;;;;;;5052814;28;20182;-60
2021/12/28 01:14:32;;;;;;;1.73;1.63;;;17.10;55.50;;;;;;5052157;28;20266;-59
2021/12/28 01:17:01;;;;;;;1.63;1.52;;;17.00;55.50;;;;;;5051855;28;20221;-59
2021/12/28 01:19:26;;;;;;;1.65;1.55;;;17.10;55.50;;;;;;5051683;28;20198;-61
2021/12/28 01:21:55;;;;;;;1.55;1.42;;;17.00;55.50;;;;;;5052325;28;20175;-60
2021/12/28 01:24:30;;;;;;;1.80;1.67;;;17.00;55.50;;;;;;5051256;28;20595;-59
2021/12/28 01:26:55;;;;;;;1.60;1.50;;;17.00;55.50;;;;;;5052474;28;20175;-60
2021/12/28 01:29:21;;;;;;;1.40;1.30;;;17.00;55.50;;;;;;5051989;28;20186;-59
2021/12/28 01:31:46;;;;;;;1.95;1.70;;;17.00;55.50;;;;;;5051422;28;20611;-58
2021/12/28 01:34:15;;;;;;;2.25;1.60;;;17.00;55.50;;;;;;5052008;28;20187;-58
2021/12/28 01:36:40;;;;;;;2.28;1.40;;;16.90;55.40;;;;;;5052267;28;20254;-60
2021/12/28 01:39:06;;;;;;;2.63;1.92;;;17.00;55.60;;;;;;5051727;28;20198;-65
2021/12/28 01:41:32;;;;;;;2.10;1.90;;;17.00;55.50;;;;;;5051907;28;20179;-59
2021/12/28 01:43:58;;;;;;;1.90;1.52;;;16.90;55.50;;;;;;5052152;28;20175;-59
2021/12/28 01:46:23;;;;;;;2.15;1.83;;;16.90;55.50;;;;;;5050962;28;20180;-59
2021/12/28 01:48:49;;;;;;;2.97;1.48;;;16.90;55.50;;;;;;5052018;28;20214;-60
2021/12/28 01:51:17;;;;;;;1.98;1.65;;;16.90;55.50;;;;;;5052098;28;20171;-60
2021/12/28 01:53:43;;;;;;;1.77;1.63;;;16.90;55.40;;;;;;5051744;28;20183;-61
2021/12/28 01:56:11;;;;;;;3.13;1.83;;;16.90;55.50;;;;;;5052080;28;20175;-59
2021/12/28 01:58:37;;;;;;;1.73;1.63;;;16.90;55.40;;;;;;5050883;28;20245;-60
2021/12/28 02:01:03;;;;;;;2.15;1.67;;;16.90;55.50;;;;;;5051654;28;20218;-59
2021/12/28 02:03:30;;;;;;;2.03;1.83;;;16.90;55.50;;;;;;5051819;28;20172;-59
2021/12/28 02:05:55;;;;;;;1.95;1.58;;;16.80;55.40;;;;;;5051314;28;20179;-58
2021/12/28 02:08:21;;;;;;;1.65;1.40;;;16.80;55.40;;;;;;5051552;28;20721;-59
2021/12/28 02:10:48;;;;;;;2.30;1.88;;;16.80;55.50;;;;;;5051715;28;20182;-59
2021/12/28 02:13:14;;;;;;;1.90;1.58;;;16.80;55.40;;;;;;5051040;28;20637;-59
2021/12/28 02:15:40;;;;;;;1.60;1.50;;;16.80;55.50;;;;;;5051455;28;20183;-59
2021/12/28 02:18:06;;;;;;;1.60;1.50;;;16.80;55.40;;;;;;5051804;28;20236;-59
2021/12/28 02:20:32;;;;;;;1.95;1.60;;;16.80;55.40;;;;;;5050894;28;20297;-59
2021/12/28 02:22:57;;;;;;;1.58;1.48;;;16.80;55.50;;;;;;5051789;28;20305;-59
2021/12/28 02:25:23;;;;;;;1.50;1.40;;;16.80;55.40;;;;;;5051351;28;20174;-58
2021/12/28 02:27:48;;;;;;;3.88;1.88;;;16.70;55.40;;;;;;5050908;28;20178;-59
2021/12/28 02:30:16;;;;;;;1.58;1.48;;;16.80;55.50;;;;;;5051303;28;20695;-59
2021/12/28 02:32:43;;;;;;;1.60;1.50;;;16.70;55.50;;;;;;5054652;28;20249;-59
2021/12/28 02:35:10;;;;;;;1.73;1.50;;;16.70;55.40;;;;;;5054920;28;20705;-59
2021/12/28 02:37:36;;;;;;;2.22;1.90;;;16.70;55.40;;;;;;5055340;28;20202;-59
2021/12/28 02:40:03;;;;;;;1.63;1.52;;;16.70;55.40;;;;;;5055519;28;20235;-59
2021/12/28 02:42:29;;;;;;;2.35;1.70;;;16.70;55.40;;;;;;5054438;28;20272;-58
2021/12/28 02:44:59;;;;;;;1.70;1.60;;;16.70;55.40;;;;;;5055393;28;20182;-59
2021/12/28 02:47:24;;;;;;;1.63;1.52;;;16.70;55.40;;;;;;5055418;28;20233;-59
2021/12/28 02:49:50;;;;;;;1.60;1.50;;;16.70;55.40;;;;;;5054718;28;20264;-59
2021/12/28 02:52:15;;;;;;;1.70;1.60;;;16.70;55.40;;;;;;5055532;28;20171;-59
2021/12/28 02:54:41;;;;;;;1.52;1.42;;;16.70;55.40;;;;;;5054398;28;20182;-58
2021/12/28 02:57:06;;;;;;;1.55;1.45;;;16.70;55.40;;;;;;5055224;28;20175;-58
2021/12/28 02:59:35;;;;;;;2.15;1.95;;;16.60;55.40;;;;;;5054822;28;20191;-58
2021/12/28 03:02:00;;;;;;;2.35;1.70;;;16.60;55.40;;;;;;5054704;28;20232;-58
2021/12/28 03:04:27;;;;;;;2.17;1.73;;;16.60;55.40;;;;;;5054965;28;20250;-57
2021/12/28 03:06:53;;;;;;;1.83;1.67;;;16.60;55.40;;;;;;5055332;28;20198;-59
2021/12/28 03:09:20;;;;;;;2.08;1.50;;;16.60;55.40;;;;;;5053033;28;20186;-58
2021/12/28 03:11:46;;;;;;;1.60;1.50;;;16.60;55.40;;;;;;5054976;28;20179;-59
2021/12/28 03:14:11;;;;;;;1.55;1.45;;;16.60;56.00;;;;;;5054952;28;20181;-60
2021/12/28 03:16:38;;;;;;;2.70;1.92;;;16.60;55.40;;;;;;5053994;28;20279;-59
2021/12/28 03:19:04;;;;;;;1.80;1.70;;;16.60;55.40;;;;;;5055073;28;20258;-59
2021/12/28 03:21:30;;;;;;;1.55;1.45;;;16.60;55.40;;;;;;5054600;28;20612;-59
2021/12/28 03:23:59;;;;;;;1.90;1.63;;;16.60;55.40;;;;;;5054058;28;20176;-59
2021/12/28 03:26:24;;;;;;;2.50;1.60;;;16.60;55.40;;;;;;5054499;28;20216;-60
2021/12/28 03:28:50;;;;;;;1.95;1.70;;;16.60;55.40;;;;;;5054828;28;20163;-59
2021/12/28 03:31:17;;;;;;;1.70;1.60;;;16.60;55.40;;;;;;5054191;28;20183;-58
2021/12/28 03:33:44;;;;;;;3.03;1.90;;;16.50;55.40;;;;;;5054358;28;20175;-58
2021/12/28 03:36:10;;;;;;;2.50;1.60;;;16.50;55.30;;;;;;5054687;28;20186;-58
2021/12/28 03:38:35;;;;;;;1.75;1.38;;;16.50;55.40;;;;;;5053745;28;20480;-58
2021/12/28 03:41:08;;;;;;;1.55;1.25;;;16.50;55.40;;;;;;5054416;28;20242;-59
2021/12/28 03:43:37;;;;;;;1.80;1.70;;;16.50;55.30;;;;;;5054343;28;20171;-59
2021/12/28 03:46:02;;;;;;;2.08;1.70;;;16.50;55.40;;;;;;5053874;28;20233;-59
2021/12/28 03:48:28;;;;;;;2.17;1.50;;;16.50;55.40;;;;;;5053991;28;20227;-59
2021/12/28 03:50:53;;;;;;;2.00;1.70;;;16.50;55.40;;;;;;5053837;28;20167;-59
2021/12/28 03:53:22;;;;;;;2.15;1.95;;;16.50;55.40;;;;;;5053891;28;20183;-59
2021/12/28 03:55:48;;;;;;;2.30;1.65;;;16.50;55.40;;;;;;5054250;28;20289;-60
2021/12/28 03:58:14;;;;;;;2.40;2.03;;;16.40;55.30;;;;;;5052507;28;20262;-59
2021/12/28 04:00:41;;;;;;;1.83;1.73;;;16.50;55.40;;;;;;5053750;28;20631;-59
2021/12/28 04:03:07;;;;;;;1.50;1.40;;;16.50;55.40;;;;;;5054206;28;20178;-59
2021/12/28 04:05:33;;;;;;;2.55;1.75;;;16.40;55.30;;;;;;5053075;28;20183;-59
2021/12/28 04:07:58;;;;;;;2.60;1.98;;;16.40;55.30;;;;;;5054031;28;20269;-59
2021/12/28 04:10:48;;;;;;;1.65;1.55;;;16.40;55.30;;;;;;5053596;28;20538;-59
2021/12/28 04:13:09;;;;;;;2.25;1.67;;;16.40;55.30;;;;;;5053222;28;20622;-59
2021/12/28 04:15:35;;;;;;;1.80;1.70;;;16.40;55.30;;;;;;5053744;28;20194;-60
2021/12/28 04:18:00;;;;;;;1.75;1.50;;;16.40;55.30;;;;;;5053891;28;20190;-59
2021/12/28 04:20:26;;;;;;;1.85;1.55;;;16.40;55.40;;;;;;5052802;28;20207;-59
2021/12/28 04:22:51;;;;;;;2.17;1.70;;;16.40;55.30;;;;;;5053585;28;20178;-60
2021/12/28 04:25:17;;;;;;;3.22;1.98;;;16.40;55.30;;;;;;5053751;28;20275;-59
2021/12/28 04:27:43;;;;;;;1.65;1.55;;;16.40;55.30;;;;;;5052310;28;20167;-58
2021/12/28 04:30:10;;;;;;;1.70;1.60;;;16.40;55.40;;;;;;5053550;28;20207;-59
2021/12/28 04:32:35;;;;;;;1.60;1.50;;;16.40;55.40;;;;;;5053369;28;20248;-59
2021/12/28 04:35:01;;;;;;;1.58;1.48;;;16.40;55.30;;;;;;5052694;28;20179;-58
2021/12/28 04:37:26;;;;;;;1.83;1.40;;;16.40;55.30;;;;;;5052911;28;20211;-58
2021/12/28 04:39:52;;;;;;;1.45;1.35;;;16.30;55.30;;;;;;5053297;28;20206;-60
2021/12/28 04:42:17;;;;;;;1.52;1.40;;;16.30;55.30;;;;;;5052494;28;20187;-59
2021/12/28 04:44:43;;;;;;;1.50;1.40;;;16.30;55.30;;;;;;5052966;28;20194;-58
2021/12/28 04:47:08;;;;;;;1.88;1.48;;;16.30;55.30;;;;;;5052619;28;20705;-58
2021/12/28 04:49:34;;;;;;;1.60;1.50;;;16.30;55.30;;;;;;5052660;28;20229;-59
2021/12/28 04:52:01;;;;;;;3.78;2.05;;;16.30;55.30;;;;;;5053047;28;20203;-59
2021/12/28 04:54:26;;;;;;;2.10;1.92;;;16.30;55.30;;;;;;5051352;28;20203;-59
2021/12/28 04:56:52;;;;;;;1.50;1.40;;;16.30;55.40;;;;;;5053062;28;20205;-60
2021/12/28 04:59:18;;;;;;;1.67;1.30;;;16.30;55.30;;;;;;5052968;28;20172;-59
2021/12/28 05:01:44;;;;;;;2.83;1.50;;;16.30;55.40;;;;;;5052489;28;20183;-59
2021/12/28 05:04:09;;;;;;;1.70;1.60;;;16.30;55.30;;;;;;5053431;28;20175;-61
2021/12/28 05:06:35;;;;;;;2.03;1.42;;;16.30;55.40;;;;;;5052979;28;20236;-59
2021/12/28 05:09:02;;;;;;;2.10;1.60;;;16.30;55.30;;;;;;5052266;28;20171;-59
2021/12/28 05:11:30;;;;;;;1.70;1.60;;;16.30;55.40;;;;;;5052501;28;20282;-60
2021/12/28 05:13:56;;;;;;;2.05;1.60;;;16.30;55.40;;;;;;5052735;28;20658;-60
2021/12/28 05:16:21;;;;;;;1.65;1.55;;;16.20;55.40;;;;;;5051618;28;20175;-60
2021/12/28 05:18:47;;;;;;;1.52;1.35;;;16.20;55.40;;;;;;5052589;28;20163;-60
2021/12/28 05:21:12;;;;;;;1.75;1.50;;;16.20;55.30;;;;;;5052268;28;20257;-59
2021/12/28 05:23:38;;;;;;;1.55;1.23;;;16.20;55.40;;;;;;5051875;28;20179;-60
2021/12/28 05:26:04;;;;;;;2.42;1.40;;;16.20;55.40;;;;;;5052517;28;20216;-59
2021/12/28 05:28:29;;;;;;;1.60;1.50;;;16.20;55.40;;;;;;5052110;28;20481;-59
2021/12/28 05:30:55;;;;;;;1.73;1.38;;;16.20;55.40;;;;;;5051784;28;20175;-60
2021/12/28 05:33:21;;;;;;;1.80;1.50;;;16.20;55.40;;;;;;5052129;28;20167;-59
2021/12/28 05:35:46;;;;;;;1.67;1.50;;;16.20;56.00;;;;;;5052277;28;20637;-59
2021/12/28 05:38:12;;;;;;;1.55;1.45;;;16.20;55.40;;;;;;5051688;28;20736;-59
2021/12/28 05:40:38;;;;;;;1.75;1.55;;;16.20;55.40;;;;;;5051862;28;21046;-60
2021/12/28 05:43:04;;;;;;;1.50;1.40;;;16.20;55.40;;;;;;5052489;28;20648;-59
2021/12/28 05:45:30;;;;;;;2.05;1.50;;;16.20;55.40;;;;;;5051414;28;20179;-59
2021/12/28 05:47:55;;;;;;;2.20;1.50;;;16.20;55.40;;;;;;5052271;28;20697;-58
2021/12/28 05:50:21;;;;;;;3.13;1.50;;;16.20;55.40;;;;;;5051570;28;20232;-57
2021/12/28 05:52:46;;;;;;;2.72;1.70;;;16.10;55.40;;;;;;5051505;28;20250;-58
2021/12/28 05:55:12;;;;;;;2.05;1.30;;;16.10;55.40;;;;;;5052087;28;20225;-58
2021/12/28 05:57:37;;;;;;;1.35;1.20;;;16.10;55.40;;;;;;5051107;28;20186;-60
2021/12/28 06:00:07;;;;;;;1.95;1.42;;;16.10;55.40;;;;;;5051933;28;20218;-58
2021/12/28 06:02:33;;;;;;;2.70;1.48;;;16.10;55.40;;;;;;5051414;28;20171;-58
2021/12/28 06:04:58;;;;;;;2.45;1.27;;;16.10;55.40;;;;;;5050999;28;20178;-58
2021/12/28 06:07:27;;;;;;;1.75;1.65;;;16.10;55.40;;;;;;5050566;28;20583;-58
2021/12/28 06:09:56;;;;;;;1.50;1.40;;;16.10;55.40;;;;;;5051901;28;20187;-59
2021/12/28 06:12:22;;;;;;;1.30;1.20;;;16.10;55.40;;;;;;5050680;28;20650;-60
2021/12/28 06:14:50;;;;;;;2.42;1.65;;;16.10;55.40;;;;;;5051788;28;20208;-60
2021/12/28 06:17:16;;;;;;;1.50;1.40;;;16.10;55.40;;;;;;5051759;28;20187;-59
2021/12/28 06:19:41;;;;;;;1.65;1.27;;;16.10;55.60;;;;;;5050477;28;20211;-59
2021/12/28 06:22:07;;;;;;;1.92;1.75;;;16.10;55.40;;;;;;5051625;28;20523;-59
2021/12/28 06:24:33;;;;;;;1.73;1.38;;;16.10;56.10;;;;;;5051132;28;20218;-58
2021/12/28 06:26:58;;;;;;;1.40;1.30;;;16.10;55.50;;;;;;5050879;28;20171;-58
2021/12/28 06:29:24;;;;;;;2.55;1.70;;;16.10;55.50;;;;;;5051348;28;20183;-58
2021/12/28 06:31:49;;;;;;;1.80;1.50;;;16.10;55.50;;;;;;5051306;28;20167;-59
2021/12/28 06:34:15;;;;;;;1.50;1.30;;;16.00;55.40;;;;;;5050829;28;20179;-59
2021/12/28 06:36:40;;;;;;;2.28;1.38;;;16.00;55.50;;;;;;5051378;28;20185;-59
2021/12/28 06:39:06;;;;;;;2.90;2.15;;;16.10;55.50;;;;;;5051217;28;20175;-59
2021/12/28 06:41:32;;;;;;;2.63;1.50;;;16.00;55.50;;;;;;5050402;28;20175;-58
2021/12/28 06:43:58;;;;;;;2.63;1.50;;;16.00;55.40;;;;;;5051504;28;20214;-58
2021/12/28 06:46:23;;;;;;;2.10;1.70;;;16.00;55.50;;;;;;5050505;28;20190;-58
2021/12/28 06:48:49;;;;;;;1.55;1.40;;;16.00;55.50;;;;;;5050357;28;20223;-58
2021/12/28 06:51:14;;;;;;;1.75;1.23;;;16.00;55.50;;;;;;5051545;28;20224;-58
2021/12/28 06:53:40;;;;;;;1.90;1.70;;;16.00;55.50;;;;;;5051064;28;20514;-59
2021/12/28 06:56:06;;;;;;;2.58;1.45;;;16.00;55.50;;;;;;5050640;28;20167;-58
2021/12/28 06:58:31;;;;;;;1.88;1.30;;;16.00;55.50;;;;;;5051044;28;20217;-58
2021/12/28 07:00:57;;;;;;;2.42;1.63;;;16.00;55.50;;;;;;5050529;28;20562;-57
2021/12/28 07:03:22;;;;;;;1.67;1.58;;;16.00;55.50;;;;;;5050788;28;20210;-58
2021/12/28 07:05:48;;;;;;;1.67;1.40;;;16.00;55.50;;;;;;5051422;28;20179;-58
2021/12/28 07:08:14;;;;;;;2.15;1.30;;;16.10;55.60;;;;;;5050686;28;20222;-58
2021/12/28 07:10:40;;;;;;;1.60;1.50;;;16.10;55.60;;;;;;5051062;28;20183;-59
2021/12/28 07:13:06;;;;;;;2.50;1.40;;;16.10;55.50;;;;;;5051222;28;20205;-58
2021/12/28 07:15:31;;;;;;;1.42;1.30;;;16.20;55.50;;;;;;5050052;28;20179;-58
2021/12/28 07:17:57;;;;;;;1.92;1.60;;;16.30;55.40;;;;;;5052869;28;20637;-60
2021/12/28 07:20:22;;;;;;;1.48;1.30;;;16.30;55.20;;;;;;5054558;28;20573;-59
2021/12/28 07:22:48;;;;;;;1.67;1.50;;;16.40;55.20;;;;;;5054129;28;20194;-58
2021/12/28 07:25:13;;;;;;;2.33;1.50;;;16.50;55.10;;;;;;5054801;28;20611;-58
2021/12/28 07:27:39;;;;;;;1.85;1.60;;;16.60;55.00;;;;;;5054420;28;20187;-58
2021/12/28 07:30:07;;;;;;;2.28;1.27;;;16.70;54.80;;;;;;5053810;28;20549;-58
2021/12/28 07:32:32;;;;;;;1.38;1.25;;;16.90;54.60;;;;;;5054209;28;20550;-58
2021/12/28 07:34:58;;;;;;;1.55;1.33;;;17.10;54.50;;;;;;5054884;28;20167;-59
2021/12/28 07:37:23;;;;;;;1.38;1.23;;;17.20;54.20;;;;;;5053834;28;20175;-59
2021/12/28 07:39:50;;;;;;;2.50;1.60;;;17.50;53.90;;;;;;5054838;28;20530;-59
2021/12/28 07:42:16;;;;;;;1.30;1.20;;;18.00;53.00;;;;;;5054527;28;20175;-58
2021/12/28 07:44:42;;;;;;;1.92;1.30;;;18.30;52.40;;;;;;5053448;28;20228;-58
2021/12/28 07:47:07;;;;;;;1.38;1.27;;;18.50;51.80;;;;;;5054351;28;20635;-57
2021/12/28 07:49:33;;;;;;;1.15;1.02;;;18.70;51.50;;;;;;5053879;28;20562;-58
2021/12/28 07:51:58;;;;;;;1.38;0.82;;;18.90;51.40;;;;;;5053756;28;20677;-58
2021/12/28 07:54:24;;;;;;;2.25;1.38;;;19.00;51.20;;;;;;5054004;28;20610;-58
2021/12/28 07:56:49;;;;;;;1.98;1.27;;;19.00;51.00;;;;;;5054214;28;20202;-59
2021/12/28 07:59:15;;;;;;;1.20;1.10;;;19.10;51.00;;;;;;5053449;28;20195;-58
2021/12/28 08:01:40;;;;;;;1.30;1.20;;;19.10;51.10;;;;;;5053800;28;20270;-59
2021/12/28 08:04:06;;;;;;;1.40;1.00;;;19.00;51.20;;;;;;5053539;28;20251;-59
2021/12/28 08:06:31;;;;;;;2.33;1.10;;;18.90;51.40;;;;;;5054092;28;20278;-62
2021/12/28 08:08:57;;;;;;;1.27;1.10;;;18.80;51.50;;;;;;5053981;28;20175;-58
2021/12/28 08:11:23;;;;;;;1.42;1.10;;;18.80;51.80;;;;;;5052898;28;20179;-60
2021/12/28 08:13:49;;;;;;;2.00;1.45;;;18.70;51.70;;;;;;5053925;28;20190;-60
2021/12/28 08:16:14;;;;;;;2.38;1.05;;;18.70;51.90;;;;;;5053657;28;20513;-61
2021/12/28 08:18:40;;;;;;;3.10;1.38;;;18.70;52.10;;;;;;5052729;28;20587;-61
2021/12/28 08:21:05;;;;;;;2.20;1.40;;;18.70;52.60;;;;;;5053761;28;20396;-61
2021/12/28 08:23:31;;;;;;;1.63;1.10;;;18.60;52.80;;;;;;5053065;28;20203;-62
2021/12/28 08:25:56;;;;;;;6.53;1.50;;;18.60;52.80;;;;;;5053039;28;20171;-63
2021/12/28 08:28:22;;;;;;;4.43;1.23;;;18.60;53.40;;;;;;5052803;28;20199;-65
2021/12/28 08:30:47;;;;;;;5.00;1.73;;;18.60;53.80;;;;;;5052605;28;20328;-65
2021/12/28 08:33:13;;;;;;;3.30;1.23;;;18.60;53.70;;;;;;5052605;28;20692;-64
2021/12/28 08:35:42;;;;;;;3.00;1.33;;;18.60;53.70;;;;;;5052987;28;20183;-67
2021/12/28 08:38:08;;;;;;;1.90;1.20;;;18.60;53.70;;;;;;5053347;28;20190;-66
2021/12/28 08:40:34;;;;;;;2.20;1.42;;;18.60;53.80;;;;;;5052222;28;20297;-66
2021/12/28 08:42:59;;;;;;;2.25;1.33;;;18.60;53.80;;;;;;5053203;28;20234;-65
2021/12/28 08:45:25;;;;;;;4.10;1.33;;;18.60;53.90;;;;;;5052832;28;20179;-65
2021/12/28 08:47:50;;;;;;;3.28;1.55;;;18.50;54.00;;;;;;5052403;28;20265;-64
2021/12/28 08:50:17;;;;;;;4.20;1.20;;;18.30;54.20;;;;;;5052918;28;20551;-64
2021/12/28 08:52:42;;;;;;;4.05;1.42;;;18.30;55.00;;;;;;5052714;28;20211;-62
2021/12/28 08:55:08;;;;;;;4.57;1.60;;;18.20;54.70;;;;;;5052379;28;20209;-60
2021/12/28 08:57:33;;;;;;;2.63;1.38;;;18.20;54.80;;;;;;5052734;28;20262;-62
2021/12/28 08:59:59;;;;;;;2.97;1.40;;;18.10;55.10;;;;;;5052868;28;20739;-63
2021/12/28 09:02:24;;;;;;;3.10;1.80;;;18.10;55.50;;;;;;5051360;28;20281;-64
2021/12/28 09:04:50;;;;;;;2.85;1.65;;;18.10;55.20;;;;;;5052646;28;20194;-64
2021/12/28 09:07:16;;;;;;;2.47;1.50;;;18.10;55.30;;;;;;5052701;28;20681;-62
2021/12/28 09:09:49;;;;;;;3.28;1.30;;;18.10;55.20;;;;;;5051483;28;20175;-61
2021/12/28 09:12:15;;;;;;;6.47;1.48;;;18.20;55.10;;;;;;5052888;28;20614;-68
2021/12/28 09:14:40;;;;;;;5.40;1.77;;;18.20;55.00;;;;;;5057111;28;20171;-68
2021/12/28 09:17:06;;;;;;;2.78;1.38;;;18.20;55.00;;;;;;5055644;28;20172;-68
2021/12/28 09:19:32;;;;;;;2.95;1.77;;;18.20;55.00;;;;;;5071233;28;20618;-68
2021/12/28 09:21:58;;;;;;;3.05;1.27;;;18.20;55.00;;;;;;5067219;28;20199;-68
2021/12/28 09:24:24;;;;;;;2.88;1.25;;;18.20;55.00;;;;;;5051330;28;20202;-68
2021/12/28 09:26:49;;;;;;;1.73;1.00;;;18.20;55.00;;;;;;5052248;28;20179;-68
2021/12/28 09:29:15;;;;;;;1.83;1.30;;;18.20;55.00;;;;;;5050649;28;20171;-68
2021/12/28 09:31:43;;;;;;;2.13;0.90;;;18.20;55.00;;;;;;5065980;28;20205;-68
2021/12/28 09:34:09;;;;;;;5.20;1.52;;;18.10;55.00;;;;;;5072311;28;20166;-70
2021/12/28 09:36:34;;;;;;;1.63;1.17;;;18.10;55.20;;;;;;5070961;28;20177;-69
2021/12/28 09:39:00;;;;;;;1.88;1.20;;;18.00;55.30;;;;;;5072328;28;20201;-68
2021/12/28 09:41:25;;;;;;;2.95;1.10;;;18.00;55.40;;;;;;5071262;28;20258;-68
2021/12/28 09:43:51;;;;;;;2.55;1.35;;;17.90;55.50;;;;;;5071285;28;20551;-68
2021/12/28 09:46:16;;;;;;;2.92;1.27;;;17.90;55.50;;;;;;5072102;28;20220;-68
2021/12/28 09:48:42;;;;;;;2.40;1.30;;;17.90;55.60;;;;;;5057789;28;20678;-68
2021/12/28 09:51:10;;;;;;;2.03;1.10;;;17.90;55.50;;;;;;5051168;28;20190;-68
2021/12/28 09:53:38;;;;;;;3.67;1.42;;;18.00;55.50;;;;;;5051588;28;20171;-68
2021/12/28 09:56:05;;;;;;;1.25;1.00;;;18.00;55.40;;;;;;5051589;28;20187;-68
2021/12/28 09:58:34;;;;;;;1.90;1.15;;;18.00;55.30;;;;;;5050655;28;20183;-68
2021/12/28 10:00:59;;;;;;;2.40;1.10;;;18.10;55.30;;;;;;5051528;28;20223;-68
2021/12/28 10:03:25;;;;;;;1.92;0.85;;;18.10;55.30;;;;;;5051408;28;20184;-67
2021/12/28 10:05:50;;;;;;;1.90;1.00;;;18.10;55.20;;;;;;5051262;28;20248;-67
2021/12/28 10:08:16;;;;;;;1.35;1.17;;;18.20;55.20;;;;;;5051596;28;20245;-67
2021/12/28 10:10:44;;;;;;;2.20;0.88;;;18.20;55.10;;;;;;5050898;28;20278;-66
2021/12/28 10:13:16;;;;;;;0.85;0.85;;;18.20;55.10;;;;;;5051817;28;20250;-66
2021/12/28 10:15:43;;;;;;;2.00;1.27;;;18.20;55.10;;;;;;5051400;28;20278;-67
2021/12/28 10:18:09;;;;;;;2.47;1.13;;;18.10;55.10;;;;;;5051082;28;20175;-66
2021/12/28 10:20:56;;;;;;;1.85;1.20;;;18.10;55.20;;;;;;5051251;28;20206;-67
2021/12/28 10:23:25;;;;;;;2.28;1.17;;;18.10;55.30;;;;;;5068942;28;20707;-66
2021/12/28 10:25:53;;;;;;;1.08;0.88;;;18.00;55.50;;;;;;5070948;28;20178;-67
2021/12/28 10:28:29;;;;;;;1.67;0.90;;;18.00;55.60;;;;;;5071282;28;20174;-67
2021/12/28 10:31:18;;;;;;;1.45;1.10;;;17.90;55.60;;;;;;5071536;28;20173;-69
2021/12/28 10:33:44;;;;;;;1.25;1.13;;;18.00;55.70;;;;;;5070588;28;20587;-68
2021/12/28 10:36:13;;;;;;;1.45;0.98;;;18.00;55.60;;;;;;5071454;28;20174;-67
2021/12/28 10:38:49;;;;;;;2.78;1.00;;;18.00;55.50;;;;;;5071180;28;20185;-68
2021/12/28 10:41:16;;;;;;;1.67;1.00;;;18.10;55.50;;;;;;5071158;28;20245;-67
2021/12/28 10:43:45;;;;;;;0.93;0.90;;;18.10;55.40;;;;;;5070999;28;20178;-67
2021/12/28 10:46:22;;;;;;;2.35;1.23;;;18.10;55.40;;;;;;5070443;28;20178;-67
2021/12/28 10:48:54;;;;;;;1.50;1.00;;;18.10;55.30;;;;;;5071241;28;20230;-66
2021/12/28 10:51:29;;;;;;;1.63;1.25;;;18.20;55.30;;;;;;5070900;28;20562;-66
2021/12/28 10:56:51;;;;;;;2.95;1.52;;;18.20;55.30;;;;;;5074586;28;20713;-66
2021/12/28 10:59:21;;;;;;;1.08;0.98;;;18.10;55.30;;;;;;5074559;28;20193;-66
2021/12/28 11:01:46;;;;;;;1.10;0.93;;;18.10;55.40;;;;;;5074224;28;20269;-66
2021/12/28 11:04:13;;;;;;;1.23;1.00;;;18.00;55.50;;;;;;5074935;28;20192;-66
2021/12/28 11:06:49;;;;;;;1.05;0.88;;;18.00;55.60;;;;;;5074539;28;20201;-64
2021/12/28 11:09:21;;;;;;;1.52;0.95;;;18.00;55.70;;;;;;5074309;28;20213;-64
2021/12/28 11:11:47;;;;;;;1.27;1.00;;;18.00;55.70;;;;;;5075050;28;20202;-65
2021/12/28 11:14:17;;;;;;;1.92;1.17;;;18.00;55.60;;;;;;5074116;28;20174;-66
2021/12/28 11:16:48;;;;;;;2.92;0.88;;;18.00;55.50;;;;;;5074117;28;20403;-66
2021/12/28 11:19:21;;;;;;;1.15;0.80;;;18.10;55.50;;;;;;5074798;28;20280;-65
2021/12/28 11:21:51;;;;;;;0.70;0.70;;;18.10;55.40;;;;;;5068208;28;20182;-65
2021/12/28 11:24:17;;;;;;;1.40;0.80;;;18.10;55.30;;;;;;5054904;28;20237;-66
2021/12/28 11:26:44;;;;;;;2.25;0.98;;;18.10;55.40;;;;;;5054469;28;20187;-66
2021/12/28 11:29:13;;;;;;;1.58;1.00;;;18.10;55.40;;;;;;5053770;28;20542;-66
2021/12/28 11:31:46;;;;;;;1.20;1.10;;;18.00;55.50;;;;;;5054303;28;20265;-66
2021/12/28 11:34:23;;;;;;;1.08;0.80;;;18.00;55.70;;;;;;5052965;28;20335;-67
2021/12/28 11:36:52;;;;;;;0.90;0.90;;;17.90;55.70;;;;;;5053867;28;20537;-67
2021/12/28 11:39:19;;;;;;;1.60;1.05;;;17.90;55.80;;;;;;5054132;28;20634;-66
2021/12/28 11:41:45;;;;;;;0.60;0.60;;;17.90;55.80;;;;;;5054390;28;20558;-68
2021/12/28 11:44:11;;;;;;;1.15;0.80;;;17.90;55.80;;;;;;5053666;28;20175;-66
2021/12/28 11:46:37;;;;;;;0.77;0.70;;;18.00;55.80;;;;;;5053711;28;20602;-68
2021/12/28 11:49:05;;;;;;;0.90;0.77;;;18.00;55.70;;;;;;5054262;28;20215;-67
2021/12/28 11:51:31;;;;;;;1.17;1.05;;;18.00;55.70;;;;;;5053515;28;20587;-67
2021/12/28 11:53:57;;;;;;;1.90;0.73;;;18.00;55.60;;;;;;5054416;28;20176;-66
2021/12/28 11:56:27;;;;;;;1.60;0.70;;;18.00;55.50;;;;;;5035413;28;20228;-67
2021/12/28 11:59:03;;;;;;;0.85;0.82;;;18.00;55.60;;;;;;5054057;28;20187;-68
2021/12/28 12:01:47;;;;;;;0.90;0.70;;;18.00;55.70;;;;;;5053592;28;20689;-67
2021/12/28 12:04:31;;;;;;;1.15;0.70;;;17.90;55.80;;;;;;5051813;28;20652;-67
2021/12/28 12:07:16;;;;;;;1.65;1.00;;;17.90;55.80;;;;;;5053726;28;20561;-66
2021/12/28 12:09:53;;;;;;;1.25;0.77;;;17.80;55.90;;;;;;5053512;28;20182;-62
2021/12/28 12:12:25;;;;;;;2.00;0.82;;;17.80;56.00;;;;;;5052870;28;20175;-61
2021/12/28 12:14:54;;;;;;;1.42;0.98;;;17.90;56.00;;;;;;5053995;28;20286;-62
2021/12/28 12:17:29;;;;;;;4.38;0.80;;;17.90;56.00;;;;;;5052696;28;20229;-63
2021/12/28 12:19:56;;;;;;;2.58;0.90;;;17.90;56.10;;;;;;5053522;28;20207;-61
2021/12/28 12:22:30;;;;;;;2.17;1.10;;;18.00;56.00;;;;;;5062707;28;20205;-62
2021/12/28 12:25:00;;;;;;;1.52;0.90;;;18.00;55.80;;;;;;5073005;28;20196;-61
2021/12/28 12:27:49;;;;;;;2.20;0.90;;;18.00;55.70;;;;;;5073137;28;20178;-63
2021/12/28 12:30:17;;;;;;;1.38;1.05;;;18.00;55.70;;;;;;5073345;28;20163;-63
2021/12/28 12:32:58;;;;;;;1.90;0.80;;;18.00;55.80;;;;;;5072450;28;20174;-63
2021/12/28 12:35:42;;;;;;;1.73;0.85;;;18.00;56.00;;;;;;5073283;28;20204;-65
2021/12/28 12:38:14;;;;;;;1.58;0.88;;;17.90;56.00;;;;;;5073123;28;20166;-63
2021/12/28 12:41:04;;;;;;;1.90;1.08;;;17.90;56.10;;;;;;5072111;28;20234;-68
2021/12/28 12:43:38;;;;;;;5.07;1.40;;;17.80;56.30;;;;;;5072835;28;20187;-67
2021/12/28 12:46:26;;;;;;;5.07;1.00;;;17.80;56.40;;;;;;5072162;28;20165;-65
2021/12/28 12:48:54;;;;;;;7.35;1.08;;;17.90;56.30;;;;;;5072804;28;20234;-64
2021/12/28 12:51:23;;;;;;;2.55;1.13;;;17.90;56.30;;;;;;5072479;28;20625;-62
2021/12/28 12:54:16;;;;;;;2.90;1.00;;;17.90;56.40;;;;;;5072072;28;20656;-63